Time;durP1;ratioP1;P1;durP2;ratioP2;P2;SDS_P1;SDS_P2;PMS_P1;PMS_P2;Temp;Humidity;BMP_temperature;BMP_pressure;BME280_temperature;BME280_humidity;BME280_pressure;Samples;Min_cycle;Max_cycle;Signal;HPM_P1;HPM_P2
2022/12/12 00:01:28;;;;;;;4.28;3.03;;;15.20;45.30;;;;;;5048078;28;20057;-45
2022/12/12 00:03:55;;;;;;;2.92;2.72;;;15.20;45.40;;;;;;5047140;28;20235;-44
2022/12/12 00:06:23;;;;;;;2.78;2.42;;;15.20;45.60;;;;;;5048077;28;20531;-44
2022/12/12 00:08:51;;;;;;;3.85;3.45;;;15.20;45.60;;;;;;5048164;28;20198;-46
2022/12/12 00:11:18;;;;;;;2.75;2.55;;;15.20;45.80;;;;;;5047902;28;20040;-43
2022/12/12 00:13:46;;;;;;;4.68;3.35;;;15.20;45.80;;;;;;5048033;28;20052;-45
2022/12/12 00:16:15;;;;;;;9.95;3.17;;;15.10;46.00;;;;;;5048330;28;20052;-44
2022/12/12 00:18:42;;;;;;;4.88;2.45;;;15.10;46.10;;;;;;5048380;28;20045;-44
2022/12/12 00:21:13;;;;;;;5.63;3.10;;;15.10;46.10;;;;;;5048249;28;20482;-45
2022/12/12 00:23:41;;;;;;;3.35;2.47;;;15.10;46.30;;;;;;5048110;28;20049;-46
2022/12/12 00:26:15;;;;;;;3.97;3.17;;;15.10;46.40;;;;;;5047852;28;20067;-45
2022/12/12 00:28:42;;;;;;;5.00;3.33;;;15.10;46.50;;;;;;5047781;28;20499;-44
2022/12/12 00:31:09;;;;;;;3.63;2.88;;;15.10;46.50;;;;;;5044591;28;20064;-43
2022/12/12 00:33:38;;;;;;;4.93;2.95;;;15.10;46.50;;;;;;5047528;28;20102;-43
2022/12/12 00:36:06;;;;;;;5.72;3.50;;;15.00;46.40;;;;;;5047333;28;20048;-44
2022/12/12 00:38:33;;;;;;;4.25;2.70;;;15.10;46.40;;;;;;5046288;28;20049;-44
2022/12/12 00:41:01;;;;;;;3.92;2.53;;;15.00;46.40;;;;;;5047137;28;20051;-46
2022/12/12 00:43:28;;;;;;;3.47;2.83;;;15.00;47.00;;;;;;5048161;28;20818;-44
2022/12/12 00:45:58;;;;;;;6.28;3.63;;;15.00;46.50;;;;;;5047508;28;20064;-43
2022/12/12 00:48:25;;;;;;;5.55;3.45;;;15.00;46.50;;;;;;5047196;28;20045;-44
2022/12/12 00:50:54;;;;;;;3.60;2.30;;;15.00;46.50;;;;;;5047329;28;20043;-45
2022/12/12 00:53:21;;;;;;;4.05;2.67;;;15.00;46.40;;;;;;5047135;28;20090;-45
2022/12/12 00:55:55;;;;;;;3.63;2.10;;;15.00;46.60;;;;;;5047457;28;20172;-44
2022/12/12 00:58:22;;;;;;;3.45;2.92;;;14.90;46.50;;;;;;5047007;28;20049;-43
2022/12/12 01:00:50;;;;;;;2.83;2.15;;;14.90;46.60;;;;;;5046957;28;20041;-44
2022/12/12 01:03:17;;;;;;;3.50;2.58;;;14.90;47.20;;;;;;5047058;28;20049;-43
2022/12/12 01:05:45;;;;;;;4.30;3.15;;;14.90;46.60;;;;;;5046613;28;20111;-45
2022/12/12 01:08:14;;;;;;;3.40;3.03;;;14.90;46.60;;;;;;5046988;28;20114;-45
2022/12/12 01:10:41;;;;;;;4.75;2.95;;;14.90;46.60;;;;;;5046659;28;20077;-44
2022/12/12 01:13:08;;;;;;;2.72;2.10;;;14.90;46.60;;;;;;5046737;28;20040;-45
2022/12/12 01:15:35;;;;;;;3.28;2.58;;;14.90;46.70;;;;;;5047011;28;20228;-44
2022/12/12 01:18:02;;;;;;;3.47;2.58;;;14.90;46.80;;;;;;5047038;28;20045;-44
2022/12/12 01:20:29;;;;;;;3.03;2.45;;;14.90;46.80;;;;;;5046262;28;20135;-44
2022/12/12 01:22:57;;;;;;;3.38;2.90;;;14.90;46.90;;;;;;5047073;28;20033;-44
2022/12/12 01:25:25;;;;;;;2.85;2.42;;;14.80;46.90;;;;;;5046973;28;20137;-44
2022/12/12 01:27:52;;;;;;;3.88;2.10;;;14.90;47.00;;;;;;5046677;28;20806;-46
2022/12/12 01:30:22;;;;;;;3.35;2.97;;;14.80;47.60;;;;;;5046793;28;20053;-44
2022/12/12 01:32:49;;;;;;;2.88;2.47;;;14.90;47.00;;;;;;5047165;28;20060;-46
2022/12/12 01:35:16;;;;;;;3.25;2.50;;;14.90;47.10;;;;;;5046369;28;20047;-44
2022/12/12 01:37:43;;;;;;;4.65;3.03;;;14.90;47.00;;;;;;5046594;28;20501;-43
2022/12/12 01:40:15;;;;;;;4.57;2.13;;;14.80;46.90;;;;;;5046903;28;20139;-44
2022/12/12 01:42:44;;;;;;;3.15;1.60;;;14.80;46.90;;;;;;5046678;28;20045;-42
2022/12/12 01:45:44;;;;;;;2.30;1.90;;;14.80;46.80;;;;;;5046859;28;20045;-42
2022/12/12 01:48:12;;;;;;;2.10;1.90;;;14.80;46.80;;;;;;5046279;28;20366;-41
2022/12/12 01:50:40;;;;;;;3.13;1.90;;;14.80;46.80;;;;;;5046417;28;20040;-42
2022/12/12 01:53:07;;;;;;;3.45;2.45;;;14.80;46.90;;;;;;5046927;28;20441;-43
2022/12/12 01:55:35;;;;;;;2.90;1.63;;;14.80;46.80;;;;;;5046584;28;20557;-44
2022/12/12 01:58:04;;;;;;;1.88;1.73;;;14.80;46.90;;;;;;5046698;28;20087;-43
2022/12/12 02:00:32;;;;;;;2.50;2.30;;;14.80;47.00;;;;;;5028806;28;20152;-43
2022/12/12 02:02:59;;;;;;;4.78;3.03;;;14.80;46.90;;;;;;5046439;28;20041;-44
2022/12/12 02:05:33;;;;;;;2.40;2.17;;;14.80;46.90;;;;;;5046632;28;20509;-43
2022/12/12 02:08:03;;;;;;;2.33;1.55;;;14.70;46.90;;;;;;5046416;28;20065;-43
2022/12/12 02:10:30;;;;;;;2.05;1.70;;;14.80;46.90;;;;;;5046027;28;20178;-44
2022/12/12 02:13:01;;;;;;;2.55;1.58;;;14.70;46.80;;;;;;5045947;28;20045;-43
2022/12/12 02:15:37;;;;;;;2.13;1.42;;;14.70;46.80;;;;;;5046644;28;20049;-43
2022/12/12 02:18:08;;;;;;;1.50;1.40;;;14.70;46.80;;;;;;5046168;28;20045;-43
2022/12/12 02:20:45;;;;;;;4.65;2.00;;;14.70;46.90;;;;;;5046207;28;20126;-43
2022/12/12 02:23:59;;;;;;;2.28;1.80;;;14.70;46.90;;;;;;5048987;28;20099;-43
2022/12/12 02:27:09;;;;;;;2.67;1.80;;;14.70;46.80;;;;;;5030176;28;20045;-43
2022/12/12 02:30:09;;;;;;;3.17;2.45;;;14.70;46.70;;;;;;4952261;28;20122;-43
2022/12/12 02:33:12;;;;;;;2.63;2.40;;;14.60;46.70;;;;;;4961020;28;20090;-43
2022/12/12 02:35:53;;;;;;;2.15;0.75;;;14.60;46.70;;;;;;4965913;28;20469;-43
2022/12/12 02:38:26;;;;;;;2.33;1.67;;;14.60;46.70;;;;;;4982752;28;20122;-44
2022/12/12 02:41:03;;;;;;;2.35;2.13;;;14.60;46.60;;;;;;4988313;28;20069;-43
2022/12/12 02:43:39;;;;;;;2.05;1.90;;;14.60;46.50;;;;;;4988555;28;20121;-43
2022/12/12 02:46:11;;;;;;;2.75;1.50;;;14.60;46.50;;;;;;4968679;28;20109;-44
2022/12/12 02:48:44;;;;;;;3.38;1.35;;;14.60;46.50;;;;;;4968167;28;20050;-43
2022/12/12 02:51:15;;;;;;;3.00;1.33;;;14.60;46.50;;;;;;4968428;28;20129;-44
2022/12/12 02:53:42;;;;;;;2.42;1.95;;;14.60;46.60;;;;;;4968098;28;20061;-42
2022/12/12 02:56:43;;;;;;;2.30;1.33;;;14.60;46.50;;;;;;4968375;28;20056;-44
2022/12/12 02:59:14;;;;;;;3.38;1.98;;;14.60;46.50;;;;;;4967791;28;20065;-44
2022/12/12 03:01:52;;;;;;;1.20;0.88;;;14.60;46.60;;;;;;4967839;28;20074;-43
2022/12/12 03:10:14;;;;;;;1.55;1.45;;;14.60;46.50;;;;;;5028089;28;20053;-43
2022/12/12 03:12:50;;;;;;;1.33;1.23;;;14.60;47.00;;;;;;5029193;28;20081;-42
2022/12/12 03:15:22;;;;;;;1.90;1.60;;;14.50;46.40;;;;;;5043097;28;20045;-44
2022/12/12 03:17:59;;;;;;;2.05;1.80;;;14.60;46.40;;;;;;5049109;28;20045;-43
2022/12/12 03:20:32;;;;;;;1.65;1.17;;;14.50;46.80;;;;;;5048818;28;20048;-44
2022/12/12 03:23:07;;;;;;;1.80;1.35;;;14.60;46.30;;;;;;5049346;28;20152;-45
2022/12/12 03:25:40;;;;;;;2.10;1.23;;;14.60;46.30;;;;;;5047763;28;20040;-51
2022/12/12 03:28:13;;;;;;;2.65;1.73;;;14.50;46.20;;;;;;5049291;28;20099;-43
2022/12/12 03:30:48;;;;;;;1.40;1.02;;;14.60;46.20;;;;;;5048439;28;20056;-44
2022/12/12 03:33:20;;;;;;;2.97;2.08;;;14.50;46.10;;;;;;5048514;28;20056;-43
2022/12/12 03:35:53;;;;;;;2.13;1.85;;;14.50;46.10;;;;;;5048830;28;20051;-43
2022/12/12 03:38:25;;;;;;;2.47;1.85;;;14.50;46.00;;;;;;5048923;28;20068;-44
2022/12/12 03:40:55;;;;;;;2.08;0.93;;;14.50;46.00;;;;;;5048584;28;20078;-45
2022/12/12 03:43:26;;;;;;;1.98;1.02;;;14.50;46.00;;;;;;5048779;28;20053;-45
2022/12/12 03:45:58;;;;;;;2.08;1.58;;;14.50;46.00;;;;;;5048036;28;20041;-44
2022/12/12 03:48:28;;;;;;;4.68;2.35;;;14.50;46.00;;;;;;5048806;28;20041;-44
2022/12/12 03:50:59;;;;;;;1.35;1.02;;;14.50;46.00;;;;;;5048437;28;20056;-45
2022/12/12 03:53:32;;;;;;;1.63;1.30;;;14.50;46.00;;;;;;5048571;28;20045;-45
2022/12/12 03:56:06;;;;;;;1.52;1.42;;;14.60;45.90;;;;;;5048387;28;20037;-45
2022/12/12 03:58:38;;;;;;;1.73;1.00;;;14.50;45.90;;;;;;5048083;28;20049;-45
2022/12/12 04:01:09;;;;;;;1.90;0.95;;;14.50;45.90;;;;;;5048057;28;20053;-44
2022/12/12 04:03:41;;;;;;;1.52;1.40;;;14.50;45.90;;;;;;5048211;28;20735;-44
2022/12/12 04:06:27;;;;;;;2.58;1.92;;;14.50;45.90;;;;;;5048214;28;20041;-45
2022/12/12 04:14:58;;;;;;;1.48;1.33;;;14.50;45.70;;;;;;5046669;28;20068;-45
2022/12/12 04:17:31;;;;;;;1.70;1.00;;;14.50;45.70;;;;;;5047710;28;20064;-46
2022/12/12 04:23:15;;;;;;;1.08;0.63;;;14.50;45.60;;;;;;5047898;28;20128;-43
2022/12/12 04:28:43;;;;;;;2.13;1.40;;;14.50;45.60;;;;;;5047622;28;20041;-43
2022/12/12 04:31:13;;;;;;;1.63;1.17;;;14.50;45.60;;;;;;5046704;28;20051;-44
2022/12/12 04:33:46;;;;;;;1.35;1.23;;;14.40;45.40;;;;;;5045786;28;20047;-46
2022/12/12 04:36:16;;;;;;;1.30;0.90;;;14.50;45.50;;;;;;5047956;28;20521;-44
2022/12/12 04:38:47;;;;;;;3.05;1.50;;;14.50;45.50;;;;;;5048048;28;20783;-43
2022/12/12 04:41:18;;;;;;;3.35;1.30;;;14.50;45.50;;;;;;5047912;28;20044;-44
2022/12/12 04:43:47;;;;;;;3.22;1.67;;;14.50;45.40;;;;;;5047367;28;20067;-44
2022/12/12 04:46:18;;;;;;;1.27;1.15;;;14.50;45.30;;;;;;5045432;28;20041;-45
2022/12/12 04:48:50;;;;;;;2.20;1.13;;;14.50;45.20;;;;;;5047457;28;20480;-44
2022/12/12 04:51:23;;;;;;;1.55;1.35;;;14.50;45.20;;;;;;5046878;28;20552;-43
2022/12/12 04:53:54;;;;;;;6.15;0.90;;;14.50;45.20;;;;;;5047219;28;20041;-43
2022/12/12 04:56:27;;;;;;;2.17;1.60;;;14.60;45.20;;;;;;5047246;28;20091;-44
2022/12/12 04:58:54;;;;;;;2.10;1.25;;;14.60;45.10;;;;;;5047334;28;20072;-44
2022/12/12 05:01:27;;;;;;;1.52;0.88;;;14.50;45.10;;;;;;5047448;28;20043;-44
2022/12/12 05:03:57;;;;;;;1.30;0.98;;;14.50;45.10;;;;;;5048195;28;20066;-44
2022/12/12 05:06:33;;;;;;;3.17;0.85;;;14.50;45.10;;;;;;5047313;28;20508;-44
2022/12/12 05:09:02;;;;;;;2.20;0.95;;;14.50;45.00;;;;;;5047613;28;20037;-45
2022/12/12 05:11:31;;;;;;;1.00;0.93;;;14.50;45.60;;;;;;5047109;28;20041;-45
2022/12/12 05:13:58;;;;;;;1.15;0.93;;;14.60;45.10;;;;;;5047524;28;20049;-47
2022/12/12 05:16:29;;;;;;;3.80;0.85;;;14.50;45.00;;;;;;5046946;28;20099;-44
2022/12/12 05:18:56;;;;;;;1.42;1.08;;;14.60;45.00;;;;;;5046648;28;20044;-43
2022/12/12 05:21:23;;;;;;;1.52;0.95;;;14.60;45.00;;;;;;5046602;28;20053;-45
2022/12/12 05:23:50;;;;;;;1.48;1.38;;;14.50;44.90;;;;;;5047002;28;20048;-44
2022/12/12 05:26:22;;;;;;;1.55;1.05;;;14.60;44.90;;;;;;5046647;28;20051;-43
2022/12/12 05:28:51;;;;;;;2.38;1.02;;;14.60;44.90;;;;;;5047096;28;20129;-43
2022/12/12 05:31:18;;;;;;;2.17;1.13;;;14.60;44.90;;;;;;5046880;28;20044;-43
2022/12/12 05:33:45;;;;;;;0.73;0.70;;;14.60;44.90;;;;;;5045265;28;20417;-44
2022/12/12 05:36:13;;;;;;;3.50;1.38;;;14.60;44.90;;;;;;5046833;28;20049;-44
2022/12/12 05:38:41;;;;;;;2.85;1.63;;;14.60;44.80;;;;;;5047241;28;20053;-44
2022/12/12 05:41:08;;;;;;;2.53;2.33;;;14.60;44.70;;;;;;5045486;28;20124;-44
2022/12/12 05:43:35;;;;;;;2.20;1.50;;;14.60;44.70;;;;;;5047246;28;20047;-44
2022/12/12 05:46:05;;;;;;;1.08;0.98;;;14.60;44.70;;;;;;5047278;28;20045;-44
2022/12/12 05:48:32;;;;;;;1.30;1.15;;;14.60;44.70;;;;;;5046860;28;20467;-44
2022/12/12 05:51:00;;;;;;;1.75;1.40;;;14.60;44.70;;;;;;5046666;28;20044;-49
2022/12/12 05:53:27;;;;;;;0.88;0.88;;;14.60;44.70;;;;;;5046582;28;20057;-46
2022/12/12 05:55:54;;;;;;;1.13;1.00;;;14.60;44.70;;;;;;5046076;28;20045;-44
2022/12/12 05:58:22;;;;;;;2.15;1.55;;;14.60;44.70;;;;;;5049770;28;20072;-45
2022/12/12 06:00:50;;;;;;;3.35;1.33;;;14.60;44.60;;;;;;5050957;28;20463;-47
2022/12/12 06:03:18;;;;;;;2.40;1.75;;;14.60;44.60;;;;;;5050663;28;20060;-44
2022/12/12 06:05:46;;;;;;;2.38;1.00;;;14.60;44.60;;;;;;5050250;28;20041;-44
2022/12/12 06:08:13;;;;;;;2.70;1.10;;;14.60;44.50;;;;;;5050598;28;20173;-44
2022/12/12 06:10:40;;;;;;;2.70;1.77;;;14.60;44.50;;;;;;5050285;28;20128;-45
2022/12/12 06:13:07;;;;;;;2.35;1.30;;;14.60;44.50;;;;;;5050102;28;20060;-45
2022/12/12 06:15:38;;;;;;;3.10;1.08;;;14.60;44.50;;;;;;5050386;28;20073;-44
2022/12/12 06:18:05;;;;;;;1.40;1.15;;;14.60;44.40;;;;;;5050162;28;20049;-43
2022/12/12 06:20:33;;;;;;;1.67;1.58;;;14.60;44.40;;;;;;5050217;28;20127;-44
2022/12/12 06:23:00;;;;;;;3.45;1.25;;;14.60;44.40;;;;;;5051060;28;20037;-44
2022/12/12 06:25:27;;;;;;;2.95;1.58;;;14.60;44.40;;;;;;5050181;28;20076;-44
2022/12/12 06:27:55;;;;;;;3.88;1.17;;;14.60;44.40;;;;;;5049714;28;20099;-43
2022/12/12 06:30:22;;;;;;;1.20;1.10;;;14.70;44.40;;;;;;5048789;28;20231;-43
2022/12/12 06:32:49;;;;;;;3.60;1.70;;;14.70;44.40;;;;;;5050397;28;20815;-44
2022/12/12 06:35:17;;;;;;;1.70;0.95;;;14.70;44.40;;;;;;5050396;28;20608;-47
2022/12/12 06:37:47;;;;;;;1.65;0.95;;;14.70;44.40;;;;;;5033035;28;20073;-43
2022/12/12 06:40:15;;;;;;;1.52;1.10;;;14.70;44.40;;;;;;5030019;28;20049;-47
2022/12/12 06:42:42;;;;;;;1.85;0.85;;;14.60;44.30;;;;;;5030028;28;20079;-45
2022/12/12 06:45:10;;;;;;;1.77;1.33;;;14.70;44.30;;;;;;5043230;28;20045;-44
2022/12/12 06:47:37;;;;;;;1.42;1.08;;;14.70;44.30;;;;;;5049590;28;20069;-44
2022/12/12 06:50:05;;;;;;;2.05;1.80;;;14.70;44.30;;;;;;5049380;28;20140;-43
2022/12/12 06:52:32;;;;;;;2.08;1.85;;;14.60;44.30;;;;;;5049665;28;20129;-44
2022/12/12 06:55:00;;;;;;;2.55;1.75;;;14.70;44.20;;;;;;5049613;28;20053;-43
2022/12/12 06:57:27;;;;;;;3.95;2.40;;;14.70;44.30;;;;;;5049509;28;20044;-48
2022/12/12 06:59:55;;;;;;;2.10;1.23;;;14.70;44.20;;;;;;5049588;28;20052;-43
2022/12/12 07:02:22;;;;;;;2.17;1.45;;;14.70;44.30;;;;;;5049240;28;20099;-42
2022/12/12 07:04:49;;;;;;;2.45;1.20;;;14.70;44.30;;;;;;5049660;28;20147;-43
2022/12/12 07:07:16;;;;;;;2.05;0.85;;;14.70;44.30;;;;;;5048860;28;20037;-44
2022/12/12 07:09:45;;;;;;;1.17;1.08;;;14.70;44.30;;;;;;5048979;28;20149;-45
2022/12/12 07:12:13;;;;;;;2.55;1.73;;;14.70;44.20;;;;;;5047927;28;20456;-44
2022/12/12 07:14:40;;;;;;;2.15;1.50;;;14.70;44.30;;;;;;5049219;28;20511;-44
2022/12/12 07:17:07;;;;;;;1.90;1.02;;;14.70;44.30;;;;;;5049032;28;20047;-44
2022/12/12 07:19:34;;;;;;;2.63;1.60;;;14.70;44.30;;;;;;5049390;28;20055;-44
2022/12/12 07:22:01;;;;;;;1.45;1.27;;;14.70;44.30;;;;;;5049268;28;20080;-43
2022/12/12 07:24:28;;;;;;;2.22;1.42;;;14.70;44.30;;;;;;5048187;28;20056;-43
2022/12/12 07:26:55;;;;;;;2.53;1.05;;;14.70;44.30;;;;;;5049303;28;20047;-45
2022/12/12 07:29:24;;;;;;;2.70;1.92;;;14.70;44.30;;;;;;5048995;28;20053;-44
2022/12/12 07:31:51;;;;;;;2.22;1.92;;;14.70;44.40;;;;;;5042174;28;20143;-42
2022/12/12 07:34:18;;;;;;;3.60;1.60;;;14.70;44.60;;;;;;5047571;28;20091;-45
2022/12/12 07:36:45;;;;;;;7.38;1.13;;;15.00;45.00;;;;;;5043303;28;20590;-45
2022/12/12 07:39:13;;;;;;;1.55;0.80;;;15.40;45.40;;;;;;5045173;28;20072;-45
2022/12/12 07:41:40;;;;;;;2.05;0.70;;;15.80;45.40;;;;;;5048204;28;20040;-46
2022/12/12 07:44:07;;;;;;;1.98;0.73;;;16.20;45.10;;;;;;5048467;28;20796;-48
2022/12/12 07:46:35;;;;;;;1.42;1.33;;;16.60;44.70;;;;;;5048383;28;20124;-50
2022/12/12 07:49:03;;;;;;;9.00;1.73;;;17.10;44.20;;;;;;5046481;28;20134;-49
2022/12/12 07:51:30;;;;;;;6.18;2.08;;;17.40;43.50;;;;;;5048361;28;20124;-46
2022/12/12 07:53:57;;;;;;;4.43;2.35;;;17.60;42.30;;;;;;5047076;28;20053;-43
2022/12/12 07:56:24;;;;;;;2.85;2.40;;;17.90;41.40;;;;;;5048309;28;20132;-47
2022/12/12 07:58:54;;;;;;;5.50;2.53;;;18.20;40.90;;;;;;5047976;28;20064;-51
2022/12/12 08:01:23;;;;;;;3.20;2.47;;;18.40;40.30;;;;;;5048599;28;20037;-43
2022/12/12 08:03:52;;;;;;;2.63;1.67;;;18.60;39.80;;;;;;5048317;28;20132;-47
2022/12/12 08:06:21;;;;;;;5.53;2.53;;;18.80;39.70;;;;;;5040587;28;20041;-46
2022/12/12 08:08:49;;;;;;;2.05;1.77;;;19.10;39.80;;;;;;5048134;28;20045;-46
2022/12/12 08:11:19;;;;;;;5.35;3.10;;;19.30;39.70;;;;;;5048064;28;20072;-45
2022/12/12 08:13:46;;;;;;;5.57;3.03;;;19.40;38.70;;;;;;5048008;28;20502;-53
2022/12/12 08:16:15;;;;;;;4.72;2.75;;;19.50;37.80;;;;;;5048009;28;20341;-48
2022/12/12 08:18:42;;;;;;;4.25;3.35;;;19.50;37.40;;;;;;5047899;28;20102;-47
2022/12/12 08:21:12;;;;;;;3.95;3.22;;;19.60;37.20;;;;;;5045273;28;20132;-47
2022/12/12 08:23:40;;;;;;;5.65;3.83;;;19.60;37.00;;;;;;5047501;28;20052;-47
2022/12/12 08:26:09;;;;;;;4.93;3.53;;;19.60;36.70;;;;;;5047810;28;20907;-48
2022/12/12 08:28:36;;;;;;;3.30;2.55;;;19.50;36.60;;;;;;5047905;28;20045;-47
2022/12/12 08:31:04;;;;;;;5.20;2.95;;;19.50;36.50;;;;;;5047830;28;20132;-48
2022/12/12 08:33:31;;;;;;;5.18;3.97;;;19.50;36.50;;;;;;5034518;28;20197;-50
2022/12/12 08:35:58;;;;;;;11.10;3.65;;;19.50;36.30;;;;;;5047514;28;20047;-47
2022/12/12 08:38:29;;;;;;;3.35;2.45;;;19.50;36.20;;;;;;5045985;28;20044;-48
2022/12/12 08:40:56;;;;;;;6.78;3.95;;;19.50;36.20;;;;;;5040235;28;20091;-47
2022/12/12 08:43:23;;;;;;;4.80;4.07;;;19.50;36.20;;;;;;5047817;28;20596;-49
2022/12/12 08:45:50;;;;;;;4.10;3.65;;;19.50;35.90;;;;;;5047417;28;20052;-53
2022/12/12 08:48:17;;;;;;;4.18;2.75;;;19.50;35.90;;;;;;5047458;28;20064;-55
2022/12/12 08:50:44;;;;;;;4.38;3.83;;;19.50;35.90;;;;;;5046731;28;20509;-51
2022/12/12 08:53:11;;;;;;;6.50;4.03;;;19.50;35.60;;;;;;5047000;28;20052;-52
2022/12/12 08:55:41;;;;;;;5.63;4.07;;;19.50;35.40;;;;;;5046953;28;20548;-54
2022/12/12 08:58:08;;;;;;;5.03;4.13;;;19.50;35.20;;;;;;5046954;28;20071;-50
2022/12/12 09:00:36;;;;;;;5.00;3.42;;;19.50;35.20;;;;;;5047149;28;20179;-53
2022/12/12 09:03:03;;;;;;;5.15;4.63;;;19.50;35.20;;;;;;5046831;28;20052;-45
2022/12/12 09:05:30;;;;;;;3.75;3.10;;;19.50;35.10;;;;;;5047371;28;20124;-55
2022/12/12 09:07:58;;;;;;;4.38;3.97;;;19.40;35.10;;;;;;5046496;28;20041;-51
2022/12/12 09:10:25;;;;;;;6.72;3.67;;;19.40;35.10;;;;;;5047016;28;20052;-50
2022/12/12 09:12:54;;;;;;;5.90;4.70;;;19.50;35.10;;;;;;5047049;28;20133;-48
2022/12/12 09:15:21;;;;;;;4.15;3.30;;;19.40;34.90;;;;;;5041760;28;20033;-48
2022/12/12 09:17:49;;;;;;;3.85;3.28;;;19.50;34.80;;;;;;5046872;28;20067;-50
2022/12/12 09:20:16;;;;;;;7.30;4.47;;;19.50;34.80;;;;;;5038820;28;20124;-50
2022/12/12 09:22:43;;;;;;;3.95;3.33;;;19.50;35.10;;;;;;5046437;28;20049;-53
2022/12/12 09:25:10;;;;;;;14.13;3.53;;;19.40;37.20;;;;;;5046257;28;20135;-53
2022/12/12 09:27:37;;;;;;;11.73;3.40;;;19.30;38.40;;;;;;5046784;28;20068;-52
2022/12/12 09:30:07;;;;;;;4.43;3.60;;;19.20;38.90;;;;;;5046420;28;20143;-46
2022/12/12 09:32:34;;;;;;;12.52;3.63;;;19.10;40.30;;;;;;5039349;28;20072;-51
2022/12/12 09:35:01;;;;;;;13.75;5.75;;;19.00;40.80;;;;;;5043787;28;20072;-54
2022/12/12 09:37:28;;;;;;;18.00;5.85;;;18.90;41.10;;;;;;5046590;28;20045;-49
2022/12/12 09:39:56;;;;;;;12.32;7.00;;;18.90;41.40;;;;;;5040462;28;20041;-52
2022/12/12 09:42:25;;;;;;;15.20;5.63;;;18.90;41.70;;;;;;5046336;28;20485;-52
2022/12/12 09:44:55;;;;;;;14.25;5.43;;;18.90;41.90;;;;;;5046374;28;20448;-49
2022/12/12 09:47:34;;;;;;;14.40;6.57;;;18.80;42.20;;;;;;5046178;28;20041;-47
2022/12/12 09:50:06;;;;;;;20.02;8.32;;;18.80;42.30;;;;;;5046346;28;20072;-49
2022/12/12 09:52:36;;;;;;;10.15;6.22;;;18.80;42.80;;;;;;5046342;28;20053;-51
2022/12/12 09:55:13;;;;;;;8.63;6.22;;;18.80;43.00;;;;;;5046223;28;20584;-52
2022/12/12 09:57:46;;;;;;;10.80;7.47;;;18.80;43.30;;;;;;5046293;28;20496;-48
2022/12/12 10:00:15;;;;;;;15.18;7.05;;;18.90;43.30;;;;;;5046104;28;20088;-50
2022/12/12 10:03:08;;;;;;;13.23;7.32;;;18.80;43.30;;;;;;5044385;28;20128;-46
2022/12/12 10:05:42;;;;;;;13.52;7.07;;;18.90;42.70;;;;;;5046107;28;20449;-49
2022/12/12 10:08:18;;;;;;;10.93;7.05;;;18.80;42.90;;;;;;5046167;28;20437;-54
2022/12/12 10:10:50;;;;;;;10.85;6.90;;;18.90;42.10;;;;;;5046260;28;20049;-54
2022/12/12 10:13:21;;;;;;;10.80;7.03;;;18.80;42.40;;;;;;5045969;28;20049;-56
2022/12/12 10:15:52;;;;;;;13.38;7.40;;;18.80;41.80;;;;;;5045607;28;20049;-49
2022/12/12 10:18:26;;;;;;;12.43;8.65;;;18.90;42.10;;;;;;5045032;28;20041;-48
2022/12/12 10:20:56;;;;;;;12.15;8.15;;;18.80;40.10;;;;;;5045495;28;20356;-46
2022/12/12 10:23:32;;;;;;;11.05;7.30;;;18.60;41.50;;;;;;5030202;28;20139;-47
2022/12/12 10:26:01;;;;;;;;;;;18.60;43.30;;;;;;5046533;28;20057;-48
2022/12/12 10:28:31;;;;;;;15.35;9.05;;;18.60;43.40;;;;;;5046111;28;20655;-47
2022/12/12 10:31:08;;;;;;;8.88;7.53;;;18.70;44.50;;;;;;5034272;28;20048;-44
2022/12/12 10:33:51;;;;;;;14.07;7.47;;;18.90;45.50;;;;;;5032495;28;20041;-49
2022/12/12 10:36:28;;;;;;;15.65;7.97;;;19.00;46.10;;;;;;5045292;28;20072;-48
2022/12/12 10:39:08;;;;;;;12.98;6.95;;;19.20;46.20;;;;;;5043860;28;20718;-49
2022/12/12 10:41:42;;;;;;;10.30;7.22;;;19.40;46.60;;;;;;5031421;28;20341;-46
2022/12/12 10:44:22;;;;;;;9.52;6.22;;;19.50;46.80;;;;;;5048258;28;20051;-46
2022/12/12 10:46:59;;;;;;;16.80;7.25;;;19.60;47.00;;;;;;5047424;28;20052;-47
2022/12/12 10:49:29;;;;;;;8.68;5.30;;;19.80;46.80;;;;;;5033907;28;20505;-47
2022/12/12 10:51:59;;;;;;;10.88;6.30;;;19.90;47.10;;;;;;5049322;28;20512;-48
2022/12/12 10:54:28;;;;;;;14.20;6.18;;;20.00;47.40;;;;;;5048769;28;20049;-46
2022/12/12 10:57:08;;;;;;;12.90;6.03;;;20.10;48.20;;;;;;5048824;28;20044;-44
2022/12/12 10:59:40;;;;;;;8.23;6.20;;;20.20;47.60;;;;;;5049037;28;20072;-44
2022/12/12 11:02:36;;;;;;;8.50;6.03;;;20.30;48.50;;;;;;5049284;28;20090;-45
2022/12/12 11:05:14;;;;;;;8.98;4.60;;;20.40;46.80;;;;;;5049315;28;20045;-45
2022/12/12 11:07:43;;;;;;;8.68;5.00;;;20.40;46.60;;;;;;5048974;28;20129;-46
2022/12/12 11:10:23;;;;;;;7.15;5.10;;;20.40;46.70;;;;;;5048743;28;20527;-45
2022/12/12 11:12:58;;;;;;;6.88;5.20;;;20.30;46.40;;;;;;5049153;28;20053;-45
2022/12/12 11:15:36;;;;;;;6.28;4.95;;;20.30;46.30;;;;;;5048728;28;20505;-42
2022/12/12 11:18:04;;;;;;;10.75;6.43;;;20.20;47.00;;;;;;5048960;28;20509;-42
2022/12/12 11:20:32;;;;;;;9.38;5.78;;;20.10;47.20;;;;;;5048243;28;20040;-42
2022/12/12 11:22:59;;;;;;;6.82;5.72;;;20.10;47.50;;;;;;5048573;28;20123;-42
2022/12/12 11:25:29;;;;;;;6.13;5.43;;;20.10;47.90;;;;;;5048620;28;20437;-43
2022/12/12 11:27:59;;;;;;;13.18;6.80;;;20.00;47.60;;;;;;5047777;28;20041;-42
2022/12/12 11:30:34;;;;;;;6.80;5.68;;;20.00;47.90;;;;;;5048479;28;20052;-42
2022/12/12 11:33:03;;;;;;;10.07;5.57;;;19.90;48.10;;;;;;5039223;28;20061;-43
2022/12/12 11:35:35;;;;;;;8.88;5.50;;;19.90;48.30;;;;;;5047429;28;20065;-44
2022/12/12 11:38:05;;;;;;;7.85;5.60;;;19.90;49.10;;;;;;5048473;28;20111;-43
2022/12/12 11:40:35;;;;;;;8.90;5.57;;;19.80;49.10;;;;;;5042789;28;20098;-43
2022/12/12 11:43:18;;;;;;;8.50;5.57;;;19.80;49.30;;;;;;5047845;28;20073;-42
2022/12/12 11:45:58;;;;;;;8.68;5.35;;;19.80;49.20;;;;;;5047941;28;20598;-42
2022/12/12 11:48:44;;;;;;;8.25;6.07;;;19.80;49.80;;;;;;5048276;28;20041;-43
2022/12/12 11:51:29;;;;;;;8.30;4.97;;;19.80;49.70;;;;;;5048264;28;20317;-44
2022/12/12 11:53:56;;;;;;;9.10;5.13;;;19.70;50.30;;;;;;5048350;28;20126;-45
2022/12/12 11:56:36;;;;;;;7.55;5.80;;;19.80;50.60;;;;;;5048035;28;20124;-43
2022/12/12 11:59:27;;;;;;;8.85;5.55;;;19.80;50.60;;;;;;5047604;28;20122;-44
2022/12/12 12:02:05;;;;;;;8.73;5.70;;;19.80;51.10;;;;;;5047905;28;20472;-43
2022/12/12 12:04:50;;;;;;;14.23;6.22;;;19.80;51.10;;;;;;5047941;28;20079;-49
2022/12/12 12:07:43;;;;;;;12.27;6.93;;;19.80;50.80;;;;;;5047626;28;20094;-48
2022/12/12 12:10:18;;;;;;;16.35;7.57;;;19.80;50.80;;;;;;5047778;28;20052;-46
2022/12/12 12:12:54;;;;;;;9.15;6.00;;;19.80;50.70;;;;;;5046279;28;20423;-50
2022/12/12 12:15:35;;;;;;;8.10;6.75;;;19.80;50.00;;;;;;5042399;28;20048;-48
2022/12/12 12:18:47;;;;;;;10.98;6.13;;;19.80;49.40;;;;;;5047993;28;20044;-49
2022/12/12 12:21:29;;;;;;;7.32;5.25;;;19.90;48.90;;;;;;5038786;28;20470;-47
2022/12/12 12:24:23;;;;;;;9.93;5.97;;;19.90;48.90;;;;;;5047803;28;20048;-50
2022/12/12 12:26:59;;;;;;;10.70;5.57;;;19.90;47.90;;;;;;5047381;28;20044;-47
2022/12/12 12:29:51;;;;;;;7.22;6.00;;;19.80;47.40;;;;;;5032813;28;20029;-46
2022/12/12 12:32:30;;;;;;;9.20;6.55;;;19.90;47.20;;;;;;5047648;28;20040;-48
2022/12/12 12:35:13;;;;;;;11.35;5.75;;;19.90;47.50;;;;;;5046603;28;20056;-49
2022/12/12 12:37:51;;;;;;;21.33;8.02;;;19.90;46.60;;;;;;5048632;28;20040;-57
2022/12/12 12:40:41;;;;;;;13.38;6.25;;;20.00;46.50;;;;;;5042814;28;20444;-50
2022/12/12 12:43:29;;;;;;;10.88;6.75;;;20.00;45.90;;;;;;5031481;28;20064;-47
2022/12/12 12:46:00;;;;;;;10.98;6.75;;;20.00;45.90;;;;;;5047604;28;20041;-49
2022/12/12 12:48:31;;;;;;;7.05;5.38;;;20.00;46.20;;;;;;5043070;28;20053;-47
2022/12/12 12:51:04;;;;;;;14.98;6.78;;;20.10;45.90;;;;;;5047353;28;20045;-48
2022/12/12 12:53:36;;;;;;;9.23;6.07;;;20.20;45.80;;;;;;5047628;28;20037;-49
2022/12/12 12:56:14;;;;;;;9.38;6.28;;;20.20;45.90;;;;;;5045666;28;20033;-54
2022/12/12 12:58:46;;;;;;;8.65;6.20;;;20.30;45.70;;;;;;5046659;28;20053;-51
2022/12/12 13:01:16;;;;;;;7.13;5.97;;;20.30;45.70;;;;;;5047188;28;20049;-51
2022/12/12 13:03:48;;;;;;;10.18;6.90;;;20.30;45.60;;;;;;5047224;28;20055;-48
2022/12/12 13:06:20;;;;;;;9.35;6.43;;;20.40;45.50;;;;;;5046428;28;20118;-44
2022/12/12 13:08:57;;;;;;;9.65;6.68;;;20.50;45.00;;;;;;5047118;28;20456;-59
2022/12/12 13:11:32;;;;;;;9.00;6.47;;;20.50;44.70;;;;;;5046848;28;20509;-54
2022/12/12 13:14:05;;;;;;;7.53;5.80;;;20.50;44.00;;;;;;5047121;28;20156;-56
2022/12/12 13:16:33;;;;;;;8.85;5.88;;;20.50;44.20;;;;;;5046999;28;20045;-56
2022/12/12 13:19:05;;;;;;;8.43;6.13;;;20.50;44.30;;;;;;5046737;28;20450;-55
2022/12/12 13:21:40;;;;;;;5.90;5.25;;;20.50;43.90;;;;;;5046633;28;20048;-57
2022/12/12 13:24:14;;;;;;;10.57;5.10;;;20.50;43.50;;;;;;5046514;28;20538;-60
2022/12/12 13:26:48;;;;;;;6.53;5.07;;;20.50;43.50;;;;;;5046704;28;20053;-61